sensor_id;sensor_type;location;lat;lon;timestamp;pressure;altitude;pressure_sealevel;temperature;humidity
69127;BME280;56688;50.234;19.292;2023-02-17T00:00:37;99116.10;;;1.63;78.12
69127;BME280;56688;50.234;19.292;2023-02-17T00:03:04;99115.34;;;1.64;77.81
69127;BME280;56688;50.234;19.292;2023-02-17T00:05:31;99111.91;;;1.62;77.96
69127;BME280;56688;50.234;19.292;2023-02-17T00:07:58;99113.14;;;1.60;77.71
69127;BME280;56688;50.234;19.292;2023-02-17T00:10:25;99112.70;;;1.59;77.94
69127;BME280;56688;50.234;19.292;2023-02-17T00:12:52;99115.31;;;1.59;77.77
69127;BME280;56688;50.234;19.292;2023-02-17T00:15:18;99110.65;;;1.61;78.15
69127;BME280;56688;50.234;19.292;2023-02-17T00:17:46;99109.42;;;1.63;78.12
69127;BME280;56688;50.234;19.292;2023-02-17T00:20:13;99106.20;;;1.66;78.26
69127;BME280;56688;50.234;19.292;2023-02-17T00:22:40;99111.42;;;1.69;77.85
69127;BME280;56688;50.234;19.292;2023-02-17T00:25:06;99109.31;;;1.72;78.44
69127;BME280;56688;50.234;19.292;2023-02-17T00:27:33;99112.45;;;1.72;78.48
69127;BME280;56688;50.234;19.292;2023-02-17T00:30:00;99113.96;;;1.73;78.55
69127;BME280;56688;50.234;19.292;2023-02-17T00:32:27;99105.57;;;1.75;78.15
69127;BME280;56688;50.234;19.292;2023-02-17T00:34:55;99108.58;;;1.76;78.32
69127;BME280;56688;50.234;19.292;2023-02-17T00:37:24;99102.70;;;1.80;78.37
69127;BME280;56688;50.234;19.292;2023-02-17T00:39:53;99101.73;;;1.83;78.41
69127;BME280;56688;50.234;19.292;2023-02-17T00:42:20;99097.33;;;1.86;78.33
69127;BME280;56688;50.234;19.292;2023-02-17T00:44:47;99094.24;;;1.87;78.10
69127;BME280;56688;50.234;19.292;2023-02-17T00:47:14;99096.33;;;1.87;78.04
69127;BME280;56688;50.234;19.292;2023-02-17T00:49:41;99089.45;;;1.87;78.01
69127;BME280;56688;50.234;19.292;2023-02-17T00:52:07;99087.73;;;1.89;77.96
69127;BME280;56688;50.234;19.292;2023-02-17T00:54:34;99083.50;;;1.92;77.85
69127;BME280;56688;50.234;19.292;2023-02-17T00:57:02;99078.31;;;1.93;77.98
69127;BME280;56688;50.234;19.292;2023-02-17T00:59:30;99074.59;;;1.98;77.86
69127;BME280;56688;50.234;19.292;2023-02-17T01:01:58;99074.30;;;1.99;77.76
69127;BME280;56688;50.234;19.292;2023-02-17T01:04:25;99076.45;;;1.99;77.73
69127;BME280;56688;50.234;19.292;2023-02-17T01:06:52;99076.80;;;2.01;77.53
69127;BME280;56688;50.234;19.292;2023-02-17T01:09:18;99070.13;;;2.05;77.72
69127;BME280;56688;50.234;19.292;2023-02-17T01:11:47;99071.85;;;2.08;77.37
69127;BME280;56688;50.234;19.292;2023-02-17T01:14:14;99071.17;;;2.10;77.27
69127;BME280;56688;50.234;19.292;2023-02-17T01:16:45;99068.65;;;2.11;77.49
69127;BME280;56688;50.234;19.292;2023-02-17T01:19:15;99056.02;;;2.11;77.26
69127;BME280;56688;50.234;19.292;2023-02-17T01:21:45;99053.70;;;2.13;77.25
69127;BME280;56688;50.234;19.292;2023-02-17T01:24:12;99047.52;;;2.18;77.15
69127;BME280;56688;50.234;19.292;2023-02-17T01:26:40;99044.73;;;2.22;77.11
69127;BME280;56688;50.234;19.292;2023-02-17T01:29:07;99042.17;;;2.28;76.81
69127;BME280;56688;50.234;19.292;2023-02-17T01:31:34;99035.88;;;2.30;76.74
69127;BME280;56688;50.234;19.292;2023-02-17T01:34:03;99036.91;;;2.32;76.39
69127;BME280;56688;50.234;19.292;2023-02-17T01:36:31;99035.59;;;2.40;76.07
69127;BME280;56688;50.234;19.292;2023-02-17T01:38:58;99038.86;;;2.45;75.99
69127;BME280;56688;50.234;19.292;2023-02-17T01:41:26;99035.45;;;2.48;75.84
69127;BME280;56688;50.234;19.292;2023-02-17T01:44:12;99037.90;;;2.50;75.58
69127;BME280;56688;50.234;19.292;2023-02-17T01:46:42;99036.05;;;2.51;75.89
69127;BME280;56688;50.234;19.292;2023-02-17T01:51:53;99040.48;;;2.58;75.44
69127;BME280;56688;50.234;19.292;2023-02-17T01:54:26;99033.27;;;2.60;75.27
69127;BME280;56688;50.234;19.292;2023-02-17T01:56:56;99029.89;;;2.60;75.15
69127;BME280;56688;50.234;19.292;2023-02-17T01:59:24;99030.89;;;2.61;75.15
69127;BME280;56688;50.234;19.292;2023-02-17T02:01:54;99032.48;;;2.61;75.07
69127;BME280;56688;50.234;19.292;2023-02-17T02:04:25;99031.29;;;2.60;75.03
69127;BME280;56688;50.234;19.292;2023-02-17T02:06:55;99030.55;;;2.60;74.99
69127;BME280;56688;50.234;19.292;2023-02-17T02:09:38;99032.10;;;2.61;74.91
69127;BME280;56688;50.234;19.292;2023-02-17T02:12:14;99032.67;;;2.60;75.02
69127;BME280;56688;50.234;19.292;2023-02-17T02:14:44;99031.67;;;2.58;74.95
69127;BME280;56688;50.234;19.292;2023-02-17T02:22:39;99032.77;;;2.70;75.17
69127;BME280;56688;50.234;19.292;2023-02-17T02:28:04;99026.55;;;2.81;74.76
69127;BME280;56688;50.234;19.292;2023-02-17T02:30:49;99023.98;;;2.85;74.46
69127;BME280;56688;50.234;19.292;2023-02-17T02:33:42;99023.31;;;2.91;74.42
69127;BME280;56688;50.234;19.292;2023-02-17T02:36:24;99024.05;;;2.97;74.00
69127;BME280;56688;50.234;19.292;2023-02-17T02:39:00;99026.91;;;3.01;73.99
69127;BME280;56688;50.234;19.292;2023-02-17T02:41:33;99025.55;;;3.02;73.85
69127;BME280;56688;50.234;19.292;2023-02-17T02:44:04;99017.18;;;3.01;73.71
69127;BME280;56688;50.234;19.292;2023-02-17T02:46:32;99011.93;;;3.03;73.87
69127;BME280;56688;50.234;19.292;2023-02-17T02:48:59;99012.47;;;3.04;73.54
69127;BME280;56688;50.234;19.292;2023-02-17T02:51:46;99008.48;;;3.06;73.59
69127;BME280;56688;50.234;19.292;2023-02-17T02:54:18;99011.11;;;3.06;73.36
69127;BME280;56688;50.234;19.292;2023-02-17T03:04:57;99009.58;;;3.03;73.34
69127;BME280;56688;50.234;19.292;2023-02-17T03:07:32;99004.36;;;3.05;73.35
69127;BME280;56688;50.234;19.292;2023-02-17T03:10:00;99011.81;;;3.06;73.24
69127;BME280;56688;50.234;19.292;2023-02-17T03:12:27;99006.66;;;3.07;73.33
69127;BME280;56688;50.234;19.292;2023-02-17T03:14:59;99007.02;;;3.06;73.27
69127;BME280;56688;50.234;19.292;2023-02-17T03:17:31;98998.58;;;3.07;73.17
69127;BME280;56688;50.234;19.292;2023-02-17T03:20:00;99000.24;;;3.10;73.25
69127;BME280;56688;50.234;19.292;2023-02-17T03:22:33;98995.84;;;3.14;72.93
69127;BME280;56688;50.234;19.292;2023-02-17T03:25:01;98986.36;;;3.16;72.82
69127;BME280;56688;50.234;19.292;2023-02-17T03:27:29;98987.98;;;3.18;72.57
69127;BME280;56688;50.234;19.292;2023-02-17T03:29:56;98980.67;;;3.17;72.58
69127;BME280;56688;50.234;19.292;2023-02-17T03:32:23;98980.41;;;3.16;72.48
69127;BME280;56688;50.234;19.292;2023-02-17T03:34:50;98980.49;;;3.17;72.48
69127;BME280;56688;50.234;19.292;2023-02-17T03:37:17;98974.00;;;3.18;72.58
69127;BME280;56688;50.234;19.292;2023-02-17T03:39:45;98976.02;;;3.22;72.48
69127;BME280;56688;50.234;19.292;2023-02-17T03:42:11;98978.30;;;3.24;72.27
69127;BME280;56688;50.234;19.292;2023-02-17T03:44:38;98975.63;;;3.26;72.38
69127;BME280;56688;50.234;19.292;2023-02-17T03:47:06;98974.52;;;3.26;72.14
69127;BME280;56688;50.234;19.292;2023-02-17T03:49:32;98981.33;;;3.29;72.20
69127;BME280;56688;50.234;19.292;2023-02-17T03:51:59;98981.23;;;3.32;72.07
69127;BME280;56688;50.234;19.292;2023-02-17T03:54:26;98991.48;;;3.36;71.97
69127;BME280;56688;50.234;19.292;2023-02-17T03:56:53;98988.88;;;3.38;71.89
69127;BME280;56688;50.234;19.292;2023-02-17T03:59:20;98985.98;;;3.39;71.87
69127;BME280;56688;50.234;19.292;2023-02-17T04:01:47;98985.02;;;3.38;71.92
69127;BME280;56688;50.234;19.292;2023-02-17T04:04:14;98989.41;;;3.38;71.85
69127;BME280;56688;50.234;19.292;2023-02-17T04:06:41;98989.41;;;3.42;71.80
69127;BME280;56688;50.234;19.292;2023-02-17T04:09:07;98987.66;;;3.46;71.78
69127;BME280;56688;50.234;19.292;2023-02-17T04:11:34;98981.53;;;3.50;71.64
69127;BME280;56688;50.234;19.292;2023-02-17T04:14:02;98980.08;;;3.52;71.23
69127;BME280;56688;50.234;19.292;2023-02-17T04:16:30;98971.24;;;3.54;71.29
69127;BME280;56688;50.234;19.292;2023-02-17T04:18:56;98968.44;;;3.56;71.18
69127;BME280;56688;50.234;19.292;2023-02-17T04:21:23;98965.33;;;3.56;71.15
69127;BME280;56688;50.234;19.292;2023-02-17T04:23:50;98961.59;;;3.56;71.17
69127;BME280;56688;50.234;19.292;2023-02-17T04:26:17;98958.63;;;3.60;71.12
69127;BME280;56688;50.234;19.292;2023-02-17T04:28:44;98957.70;;;3.65;71.15
69127;BME280;56688;50.234;19.292;2023-02-17T04:31:10;98966.58;;;3.68;70.91
69127;BME280;56688;50.234;19.292;2023-02-17T04:33:39;98964.30;;;3.70;70.92
69127;BME280;56688;50.234;19.292;2023-02-17T04:36:06;98962.20;;;3.69;70.78
69127;BME280;56688;50.234;19.292;2023-02-17T04:38:33;98964.70;;;3.69;70.75
69127;BME280;56688;50.234;19.292;2023-02-17T04:41:00;98963.33;;;3.71;70.55
69127;BME280;56688;50.234;19.292;2023-02-17T04:43:28;98966.42;;;3.73;70.74
69127;BME280;56688;50.234;19.292;2023-02-17T04:45:55;98961.63;;;3.78;70.72
69127;BME280;56688;50.234;19.292;2023-02-17T04:48:23;98961.09;;;3.82;70.65
69127;BME280;56688;50.234;19.292;2023-02-17T04:50:50;98960.21;;;3.86;70.48
69127;BME280;56688;50.234;19.292;2023-02-17T04:53:18;98951.66;;;3.89;70.56
69127;BME280;56688;50.234;19.292;2023-02-17T04:55:49;98951.53;;;3.90;70.36
69127;BME280;56688;50.234;19.292;2023-02-17T04:58:18;98949.48;;;3.94;70.49
69127;BME280;56688;50.234;19.292;2023-02-17T05:00:46;98944.01;;;3.98;70.29
69127;BME280;56688;50.234;19.292;2023-02-17T05:03:14;98942.83;;;4.01;70.47
69127;BME280;56688;50.234;19.292;2023-02-17T05:05:43;98948.30;;;4.05;70.34
69127;BME280;56688;50.234;19.292;2023-02-17T05:08:10;98940.20;;;4.07;70.14
69127;BME280;56688;50.234;19.292;2023-02-17T05:10:37;98945.54;;;4.08;70.12
69127;BME280;56688;50.234;19.292;2023-02-17T05:13:04;98944.21;;;4.08;70.02
69127;BME280;56688;50.234;19.292;2023-02-17T05:15:30;98934.77;;;4.07;70.10
69127;BME280;56688;50.234;19.292;2023-02-17T05:18:00;98933.10;;;4.10;70.02
69127;BME280;56688;50.234;19.292;2023-02-17T05:20:27;98927.59;;;4.12;69.93
69127;BME280;56688;50.234;19.292;2023-02-17T05:22:54;98921.88;;;4.13;69.86
69127;BME280;56688;50.234;19.292;2023-02-17T05:25:21;98922.30;;;4.14;69.85
69127;BME280;56688;50.234;19.292;2023-02-17T05:27:48;98921.77;;;4.12;69.85
69127;BME280;56688;50.234;19.292;2023-02-17T05:30:15;98917.15;;;4.10;69.84
69127;BME280;56688;50.234;19.292;2023-02-17T05:32:42;98908.58;;;4.12;69.81
69127;BME280;56688;50.234;19.292;2023-02-17T05:35:09;98909.80;;;4.14;69.94
69127;BME280;56688;50.234;19.292;2023-02-17T05:37:36;98912.63;;;4.15;70.05
69127;BME280;56688;50.234;19.292;2023-02-17T05:40:04;98907.67;;;4.18;70.08
69127;BME280;56688;50.234;19.292;2023-02-17T05:42:31;98911.67;;;4.18;70.25
69127;BME280;56688;50.234;19.292;2023-02-17T05:44:58;98906.41;;;4.18;70.13
69127;BME280;56688;50.234;19.292;2023-02-17T05:47:25;98907.75;;;4.17;70.28
69127;BME280;56688;50.234;19.292;2023-02-17T05:49:53;98906.16;;;4.17;70.47
69127;BME280;56688;50.234;19.292;2023-02-17T05:52:20;98909.77;;;4.20;70.28
69127;BME280;56688;50.234;19.292;2023-02-17T05:54:47;98911.96;;;4.23;70.62
69127;BME280;56688;50.234;19.292;2023-02-17T05:57:14;98907.12;;;4.24;70.61
69127;BME280;56688;50.234;19.292;2023-02-17T05:59:40;98908.51;;;4.26;70.69
69127;BME280;56688;50.234;19.292;2023-02-17T06:02:07;98899.95;;;4.27;70.54
69127;BME280;56688;50.234;19.292;2023-02-17T06:04:34;98903.98;;;4.27;70.57
69127;BME280;56688;50.234;19.292;2023-02-17T06:07:01;98910.32;;;4.26;70.72
69127;BME280;56688;50.234;19.292;2023-02-17T06:09:28;98906.95;;;4.26;70.83
69127;BME280;56688;50.234;19.292;2023-02-17T06:11:55;98904.83;;;4.28;70.69
69127;BME280;56688;50.234;19.292;2023-02-17T06:14:22;98904.71;;;4.31;70.69
69127;BME280;56688;50.234;19.292;2023-02-17T06:16:48;98898.56;;;4.35;70.84
69127;BME280;56688;50.234;19.292;2023-02-17T06:19:15;98896.11;;;4.36;70.87
69127;BME280;56688;50.234;19.292;2023-02-17T06:21:42;98892.08;;;4.36;70.66
69127;BME280;56688;50.234;19.292;2023-02-17T06:24:09;98894.67;;;4.35;70.74
69127;BME280;56688;50.234;19.292;2023-02-17T06:26:36;98898.09;;;4.36;70.71
69127;BME280;56688;50.234;19.292;2023-02-17T06:29:02;98893.73;;;4.37;70.86
69127;BME280;56688;50.234;19.292;2023-02-17T06:31:29;98896.90;;;4.41;71.01
69127;BME280;56688;50.234;19.292;2023-02-17T06:33:56;98893.81;;;4.44;71.05
69127;BME280;56688;50.234;19.292;2023-02-17T06:36:23;98892.64;;;4.47;70.73
69127;BME280;56688;50.234;19.292;2023-02-17T06:38:50;98888.88;;;4.48;70.73
69127;BME280;56688;50.234;19.292;2023-02-17T06:41:17;98887.06;;;4.51;70.67
69127;BME280;56688;50.234;19.292;2023-02-17T06:43:43;98889.14;;;4.53;70.71
69127;BME280;56688;50.234;19.292;2023-02-17T06:46:26;98886.36;;;4.58;70.65
69127;BME280;56688;50.234;19.292;2023-02-17T06:48:53;98889.30;;;4.64;70.62
69127;BME280;56688;50.234;19.292;2023-02-17T06:51:20;98891.70;;;4.69;70.31
69127;BME280;56688;50.234;19.292;2023-02-17T06:53:47;98894.61;;;4.74;70.09
69127;BME280;56688;50.234;19.292;2023-02-17T06:56:14;98896.43;;;4.77;70.07
69127;BME280;56688;50.234;19.292;2023-02-17T06:58:41;98897.81;;;4.83;70.24
69127;BME280;56688;50.234;19.292;2023-02-17T07:01:15;98895.73;;;4.90;69.73
69127;BME280;56688;50.234;19.292;2023-02-17T07:03:42;98889.34;;;4.98;69.70
69127;BME280;56688;50.234;19.292;2023-02-17T07:06:09;98889.35;;;5.06;69.32
69127;BME280;56688;50.234;19.292;2023-02-17T07:08:35;98881.18;;;5.12;69.10
69127;BME280;56688;50.234;19.292;2023-02-17T07:11:05;98875.73;;;5.17;68.94
69127;BME280;56688;50.234;19.292;2023-02-17T07:13:32;98871.25;;;5.24;68.68
69127;BME280;56688;50.234;19.292;2023-02-17T07:15:59;98873.39;;;5.29;68.81
69127;BME280;56688;50.234;19.292;2023-02-17T07:18:26;98867.07;;;5.36;68.45
69127;BME280;56688;50.234;19.292;2023-02-17T07:20:53;98862.02;;;5.44;68.12
69127;BME280;56688;50.234;19.292;2023-02-17T07:23:20;98859.73;;;5.53;68.16
69127;BME280;56688;50.234;19.292;2023-02-17T07:25:47;98865.90;;;5.63;67.80
69127;BME280;56688;50.234;19.292;2023-02-17T07:28:14;98873.84;;;5.70;67.49
69127;BME280;56688;50.234;19.292;2023-02-17T07:30:42;98871.59;;;5.75;67.43
69127;BME280;56688;50.234;19.292;2023-02-17T07:33:09;98872.69;;;5.78;67.24
69127;BME280;56688;50.234;19.292;2023-02-17T07:35:40;98876.17;;;5.86;67.11
69127;BME280;56688;50.234;19.292;2023-02-17T07:38:10;98883.59;;;5.95;66.51
69127;BME280;56688;50.234;19.292;2023-02-17T07:40:38;98882.67;;;6.01;66.74
69127;BME280;56688;50.234;19.292;2023-02-17T07:43:05;98878.42;;;6.07;66.64
69127;BME280;56688;50.234;19.292;2023-02-17T07:45:32;98876.27;;;6.11;66.63
69127;BME280;56688;50.234;19.292;2023-02-17T07:47:59;98870.52;;;6.15;66.74
69127;BME280;56688;50.234;19.292;2023-02-17T07:50:26;98864.64;;;6.21;66.52
69127;BME280;56688;50.234;19.292;2023-02-17T07:52:53;98864.30;;;6.30;66.74
69127;BME280;56688;50.234;19.292;2023-02-17T07:55:20;98863.95;;;6.38;66.70
69127;BME280;56688;50.234;19.292;2023-02-17T07:57:47;98869.14;;;6.47;66.00
69127;BME280;56688;50.234;19.292;2023-02-17T08:00:14;98865.14;;;6.51;65.65
69127;BME280;56688;50.234;19.292;2023-02-17T08:02:41;98862.31;;;6.57;66.00
69127;BME280;56688;50.234;19.292;2023-02-17T08:05:08;98866.00;;;6.60;65.67
69127;BME280;56688;50.234;19.292;2023-02-17T08:07:35;98859.91;;;6.64;65.91
69127;BME280;56688;50.234;19.292;2023-02-17T08:10:02;98849.02;;;6.71;65.72
69127;BME280;56688;50.234;19.292;2023-02-17T08:12:45;98846.04;;;6.81;65.57
69127;BME280;56688;50.234;19.292;2023-02-17T08:15:27;98841.75;;;6.93;65.07
69127;BME280;56688;50.234;19.292;2023-02-17T08:17:57;98840.63;;;7.05;65.16
69127;BME280;56688;50.234;19.292;2023-02-17T08:20:26;98837.14;;;7.11;64.83
69127;BME280;56688;50.234;19.292;2023-02-17T08:22:53;98840.36;;;7.12;64.80
69127;BME280;56688;50.234;19.292;2023-02-17T08:25:20;98842.06;;;7.15;64.96
69127;BME280;56688;50.234;19.292;2023-02-17T08:27:47;98841.36;;;7.16;64.53
69127;BME280;56688;50.234;19.292;2023-02-17T08:30:14;98838.13;;;7.20;64.60
69127;BME280;56688;50.234;19.292;2023-02-17T08:32:41;98835.55;;;7.24;64.19
69127;BME280;56688;50.234;19.292;2023-02-17T08:35:08;98841.55;;;7.28;64.24
69127;BME280;56688;50.234;19.292;2023-02-17T08:37:36;98835.09;;;7.29;64.12
69127;BME280;56688;50.234;19.292;2023-02-17T08:40:03;98839.31;;;7.30;63.84
69127;BME280;56688;50.234;19.292;2023-02-17T08:42:31;98838.31;;;7.29;63.85
69127;BME280;56688;50.234;19.292;2023-02-17T08:44:58;98845.65;;;7.26;64.10
69127;BME280;56688;50.234;19.292;2023-02-17T08:47:25;98846.42;;;7.24;64.57
69127;BME280;56688;50.234;19.292;2023-02-17T08:49:52;98845.55;;;7.22;65.04
69127;BME280;56688;50.234;19.292;2023-02-17T08:52:19;98842.23;;;7.19;65.48
69127;BME280;56688;50.234;19.292;2023-02-17T08:54:45;98836.32;;;7.18;65.18
69127;BME280;56688;50.234;19.292;2023-02-17T08:57:12;98839.60;;;7.18;66.06
69127;BME280;56688;50.234;19.292;2023-02-17T08:59:39;98836.12;;;7.17;66.44
69127;BME280;56688;50.234;19.292;2023-02-17T09:02:06;98838.84;;;7.15;67.13
69127;BME280;56688;50.234;19.292;2023-02-17T09:04:33;98839.25;;;7.12;67.60
69127;BME280;56688;50.234;19.292;2023-02-17T09:07:00;98835.52;;;7.11;68.82
69127;BME280;56688;50.234;19.292;2023-02-17T09:09:27;98836.58;;;7.14;69.93
69127;BME280;56688;50.234;19.292;2023-02-17T09:11:56;98833.20;;;7.18;70.63
69127;BME280;56688;50.234;19.292;2023-02-17T09:14:23;98828.66;;;7.21;70.64
69127;BME280;56688;50.234;19.292;2023-02-17T09:16:51;98831.38;;;7.20;70.76
69127;BME280;56688;50.234;19.292;2023-02-17T09:19:18;98827.28;;;7.18;70.19
69127;BME280;56688;50.234;19.292;2023-02-17T09:21:45;98822.46;;;7.17;69.98
69127;BME280;56688;50.234;19.292;2023-02-17T09:24:14;98821.93;;;7.17;70.12
69127;BME280;56688;50.234;19.292;2023-02-17T09:26:41;98825.66;;;7.16;69.85
69127;BME280;56688;50.234;19.292;2023-02-17T09:29:09;98815.23;;;7.15;69.99
69127;BME280;56688;50.234;19.292;2023-02-17T09:31:35;98816.98;;;7.16;69.86
69127;BME280;56688;50.234;19.292;2023-02-17T09:34:03;98807.88;;;7.16;69.86
69127;BME280;56688;50.234;19.292;2023-02-17T09:36:33;98800.62;;;7.19;70.17
69127;BME280;56688;50.234;19.292;2023-02-17T09:39:02;98795.48;;;7.24;69.75
69127;BME280;56688;50.234;19.292;2023-02-17T09:41:40;98802.36;;;7.32;70.26
69127;BME280;56688;50.234;19.292;2023-02-17T09:44:18;98799.05;;;7.40;69.90
69127;BME280;56688;50.234;19.292;2023-02-17T09:47:03;98802.21;;;7.45;69.79
69127;BME280;56688;50.234;19.292;2023-02-17T09:49:37;98795.04;;;7.56;69.30
69127;BME280;56688;50.234;19.292;2023-02-17T09:52:09;98799.34;;;7.64;68.86
69127;BME280;56688;50.234;19.292;2023-02-17T09:57:25;98798.56;;;7.72;69.14
69127;BME280;56688;50.234;19.292;2023-02-17T09:59:58;98795.64;;;7.73;68.50
69127;BME280;56688;50.234;19.292;2023-02-17T10:02:34;98791.84;;;7.76;68.46
69127;BME280;56688;50.234;19.292;2023-02-17T10:05:06;98792.31;;;7.83;68.43
69127;BME280;56688;50.234;19.292;2023-02-17T10:07:40;98794.14;;;7.86;68.69
69127;BME280;56688;50.234;19.292;2023-02-17T10:10:12;98790.69;;;7.85;68.51
69127;BME280;56688;50.234;19.292;2023-02-17T10:12:44;98793.21;;;7.83;68.60
69127;BME280;56688;50.234;19.292;2023-02-17T10:15:16;98797.29;;;7.79;69.66
69127;BME280;56688;50.234;19.292;2023-02-17T10:20:59;98796.84;;;7.67;71.09
69127;BME280;56688;50.234;19.292;2023-02-17T10:23:28;98796.33;;;7.61;71.18
69127;BME280;56688;50.234;19.292;2023-02-17T10:31:12;98789.14;;;7.41;71.84
69127;BME280;56688;50.234;19.292;2023-02-17T10:36:24;98788.11;;;7.33;71.97
69127;BME280;56688;50.234;19.292;2023-02-17T10:41:27;98772.31;;;7.21;72.50
69127;BME280;56688;50.234;19.292;2023-02-17T10:43:59;98768.12;;;7.17;72.73
69127;BME280;56688;50.234;19.292;2023-02-17T10:46:28;98763.44;;;7.18;72.96
69127;BME280;56688;50.234;19.292;2023-02-17T10:48:57;98760.05;;;7.21;72.87
69127;BME280;56688;50.234;19.292;2023-02-17T10:51:28;98752.41;;;7.25;72.23
69127;BME280;56688;50.234;19.292;2023-02-17T10:54:01;98755.20;;;7.27;71.85
69127;BME280;56688;50.234;19.292;2023-02-17T10:56:37;98752.63;;;7.30;71.86
69127;BME280;56688;50.234;19.292;2023-02-17T10:59:13;98735.36;;;7.31;71.91
69127;BME280;56688;50.234;19.292;2023-02-17T11:01:44;98740.11;;;7.34;71.28
69127;BME280;56688;50.234;19.292;2023-02-17T11:04:12;98727.88;;;7.34;70.88
69127;BME280;56688;50.234;19.292;2023-02-17T11:06:47;98722.59;;;7.34;71.11
69127;BME280;56688;50.234;19.292;2023-02-17T11:09:21;98720.80;;;7.34;71.36
69127;BME280;56688;50.234;19.292;2023-02-17T11:11:59;98710.66;;;7.38;71.02
69127;BME280;56688;50.234;19.292;2023-02-17T11:14:29;98712.52;;;7.40;71.30
69127;BME280;56688;50.234;19.292;2023-02-17T11:17:00;98701.40;;;7.43;71.01
69127;BME280;56688;50.234;19.292;2023-02-17T11:19:31;98697.84;;;7.48;71.14
69127;BME280;56688;50.234;19.292;2023-02-17T11:22:02;98688.52;;;7.56;71.60
69127;BME280;56688;50.234;19.292;2023-02-17T11:24:32;98681.25;;;7.64;71.78
69127;BME280;56688;50.234;19.292;2023-02-17T11:27:07;98683.30;;;7.76;72.04
69127;BME280;56688;50.234;19.292;2023-02-17T11:29:34;98679.80;;;7.89;71.49
69127;BME280;56688;50.234;19.292;2023-02-17T11:32:05;98668.48;;;7.93;70.40
69127;BME280;56688;50.234;19.292;2023-02-17T11:34:36;98669.29;;;7.93;70.33
69127;BME280;56688;50.234;19.292;2023-02-17T11:37:19;98671.21;;;7.93;69.86
69127;BME280;56688;50.234;19.292;2023-02-17T11:39:49;98665.00;;;7.93;69.99
69127;BME280;56688;50.234;19.292;2023-02-17T11:42:22;98662.28;;;7.95;70.24
69127;BME280;56688;50.234;19.292;2023-02-17T11:44:50;98656.27;;;7.96;69.83
69127;BME280;56688;50.234;19.292;2023-02-17T11:47:37;98649.56;;;7.93;69.91
69127;BME280;56688;50.234;19.292;2023-02-17T12:22:27;98629.34;;;7.67;70.38
69127;BME280;56688;50.234;19.292;2023-02-17T12:35:23;98620.18;;;7.66;70.51
69127;BME280;56688;50.234;19.292;2023-02-17T12:37:59;98621.65;;;7.67;70.60
69127;BME280;56688;50.234;19.292;2023-02-17T12:40:46;98616.60;;;7.68;70.10
69127;BME280;56688;50.234;19.292;2023-02-17T12:45:53;98611.41;;;7.67;70.69
69127;BME280;56688;50.234;19.292;2023-02-17T12:48:28;98605.10;;;7.68;70.45
69127;BME280;56688;50.234;19.292;2023-02-17T12:50:59;98597.55;;;7.68;70.37
69127;BME280;56688;50.234;19.292;2023-02-17T12:53:39;98598.80;;;7.65;70.22
69127;BME280;56688;50.234;19.292;2023-02-17T12:58:53;98588.41;;;7.60;70.84
69127;BME280;56688;50.234;19.292;2023-02-17T13:01:25;98592.95;;;7.66;70.94
69127;BME280;56688;50.234;19.292;2023-02-17T13:03:58;98581.87;;;7.68;70.72
69127;BME280;56688;50.234;19.292;2023-02-17T13:06:36;98580.42;;;7.70;71.03
69127;BME280;56688;50.234;19.292;2023-02-17T13:09:28;98570.39;;;7.71;71.25
69127;BME280;56688;50.234;19.292;2023-02-17T13:12:16;98568.42;;;7.71;71.09
69127;BME280;56688;50.234;19.292;2023-02-17T13:14:47;98565.40;;;7.71;70.78
69127;BME280;56688;50.234;19.292;2023-02-17T13:17:32;98563.27;;;7.73;70.97
69127;BME280;56688;50.234;19.292;2023-02-17T13:22:37;98546.42;;;7.76;70.70
69127;BME280;56688;50.234;19.292;2023-02-17T13:25:06;98546.98;;;7.77;70.89
69127;BME280;56688;50.234;19.292;2023-02-17T13:27:35;98536.40;;;7.78;70.79
69127;BME280;56688;50.234;19.292;2023-02-17T13:30:23;98534.77;;;7.82;70.76
69127;BME280;56688;50.234;19.292;2023-02-17T13:35:32;98514.95;;;7.82;70.85
69127;BME280;56688;50.234;19.292;2023-02-17T13:38:00;98520.10;;;7.84;71.08
69127;BME280;56688;50.234;19.292;2023-02-17T13:42:56;98508.04;;;7.88;71.04
69127;BME280;56688;50.234;19.292;2023-02-17T13:45:27;98503.76;;;7.90;70.88
69127;BME280;56688;50.234;19.292;2023-02-17T13:47:59;98502.31;;;7.92;71.13
69127;BME280;56688;50.234;19.292;2023-02-17T13:50:41;98495.42;;;7.93;71.05
69127;BME280;56688;50.234;19.292;2023-02-17T13:56:10;98484.92;;;7.98;70.97
69127;BME280;56688;50.234;19.292;2023-02-17T13:58:40;98490.08;;;8.01;71.11
69127;BME280;56688;50.234;19.292;2023-02-17T14:01:13;98487.63;;;8.05;71.06
69127;BME280;56688;50.234;19.292;2023-02-17T14:03:45;98486.55;;;8.08;70.83
69127;BME280;56688;50.234;19.292;2023-02-17T14:06:29;98485.11;;;8.10;70.84
69127;BME280;56688;50.234;19.292;2023-02-17T14:08:58;98477.27;;;8.12;70.89
69127;BME280;56688;50.234;19.292;2023-02-17T14:11:27;98472.86;;;8.15;71.19
69127;BME280;56688;50.234;19.292;2023-02-17T14:13:56;98469.98;;;8.20;71.10
69127;BME280;56688;50.234;19.292;2023-02-17T14:21:38;98458.78;;;8.23;70.88
69127;BME280;56688;50.234;19.292;2023-02-17T14:24:05;98456.00;;;8.26;70.79
69127;BME280;56688;50.234;19.292;2023-02-17T14:26:48;98457.16;;;8.28;70.87
69127;BME280;56688;50.234;19.292;2023-02-17T14:29:15;98449.46;;;8.31;70.94
69127;BME280;56688;50.234;19.292;2023-02-17T14:31:45;98449.08;;;8.29;70.73
69127;BME280;56688;50.234;19.292;2023-02-17T14:34:27;98444.73;;;8.30;70.95
69127;BME280;56688;50.234;19.292;2023-02-17T14:37:16;98445.02;;;8.32;70.98
69127;BME280;56688;50.234;19.292;2023-02-17T14:39:46;98431.99;;;8.30;70.90
69127;BME280;56688;50.234;19.292;2023-02-17T14:42:13;98439.98;;;8.29;71.09
69127;BME280;56688;50.234;19.292;2023-02-17T14:44:40;98434.30;;;8.28;71.34
69127;BME280;56688;50.234;19.292;2023-02-17T14:47:08;98434.77;;;8.29;71.70
69127;BME280;56688;50.234;19.292;2023-02-17T14:49:34;98425.19;;;8.29;71.46
69127;BME280;56688;50.234;19.292;2023-02-17T14:52:14;98425.98;;;8.28;71.99